Delphos, Iowa
Current Conditions -  °F | °C
As of 10:22 PM on Friday 24 Oct 2014 (Local Time) from KLWD Reporting Station
Haze Haze  
Wind Chill: 60°   Ceiling: 300
Heat Index: 60°   Visibility: 0.75mi
Dew Point: 60°   Wind: 5mph
Humidity: 100%   Direction: 10°N
Pressure: 29.98"   Gusts: NA
Location:  40.6052°N, 94.3576°W
Report Text: KLWD 250322Z AUTO 01004KT 3/4SM BR VV003 16/16 A2998 RMK AO2 T01560156
Loading
Personal Weather Stations






























Interactive Weather Map
Tropical Storm Tracking
New forecast layout! Learn more

10-Day Weather Forecast

Advertisements
Track Severe Weather on mobile